sensor_id;sensor_type;location;lat;lon;timestamp;pressure;altitude;pressure_sealevel;temperature;humidity
43488;BME280;29078;41.932;25.554;2022-12-10T00:01:47;99072.66;;;9.55;76.56
43488;BME280;29078;41.932;25.554;2022-12-10T00:04:14;99095.84;;;9.74;76.69
43488;BME280;29078;41.932;25.554;2022-12-10T00:06:40;98998.44;;;9.22;76.68
43488;BME280;29078;41.932;25.554;2022-12-10T00:09:13;99104.34;;;9.91;76.68
43488;BME280;29078;41.932;25.554;2022-12-10T00:11:39;99089.19;;;9.78;76.83
43488;BME280;29078;41.932;25.554;2022-12-10T00:14:05;99134.16;;;10.06;76.29
43488;BME280;29078;41.932;25.554;2022-12-10T00:16:33;99143.72;;;10.07;76.68
43488;BME280;29078;41.932;25.554;2022-12-10T00:19:01;99097.91;;;9.79;76.56
43488;BME280;29078;41.932;25.554;2022-12-10T00:21:29;99103.91;;;9.87;76.34
43488;BME280;29078;41.932;25.554;2022-12-10T00:23:55;98988.09;;;9.20;76.38
43488;BME280;29078;41.932;25.554;2022-12-10T00:26:23;99135.59;;;10.09;76.69
43488;BME280;29078;41.932;25.554;2022-12-10T00:28:50;99050.75;;;9.54;77.15
43488;BME280;29078;41.932;25.554;2022-12-10T00:31:18;99075.66;;;9.67;76.32
43488;BME280;29078;41.932;25.554;2022-12-10T00:33:45;99088.84;;;9.67;77.02
43488;BME280;29078;41.932;25.554;2022-12-10T00:36:15;99013.88;;;9.40;76.44
43488;BME280;29078;41.932;25.554;2022-12-10T00:38:42;99119.97;;;10.07;77.17
43488;BME280;29078;41.932;25.554;2022-12-10T00:41:08;99034.13;;;9.54;76.93
43488;BME280;29078;41.932;25.554;2022-12-10T00:43:34;99063.75;;;9.71;77.02
43488;BME280;29078;41.932;25.554;2022-12-10T00:46:00;99106.81;;;9.93;76.81
43488;BME280;29078;41.932;25.554;2022-12-10T00:48:25;99077.47;;;9.66;76.80
43488;BME280;29078;41.932;25.554;2022-12-10T00:51:01;99123.59;;;10.06;76.93
43488;BME280;29078;41.932;25.554;2022-12-10T00:53:28;99117.53;;;9.91;77.59
43488;BME280;29078;41.932;25.554;2022-12-10T00:55:55;99118.97;;;10.08;77.48
43488;BME280;29078;41.932;25.554;2022-12-10T00:58:21;98979.81;;;9.23;77.12
43488;BME280;29078;41.932;25.554;2022-12-10T01:00:47;99111.31;;;10.13;77.16
43488;BME280;29078;41.932;25.554;2022-12-10T01:03:12;99091.63;;;9.95;77.15
43488;BME280;29078;41.932;25.554;2022-12-10T01:05:38;99127.63;;;10.02;77.46
43488;BME280;29078;41.932;25.554;2022-12-10T01:08:03;99124.09;;;9.95;77.52
43488;BME280;29078;41.932;25.554;2022-12-10T01:10:29;99003.16;;;9.27;77.71
43488;BME280;29078;41.932;25.554;2022-12-10T01:12:54;99107.69;;;10.00;77.79
43488;BME280;29078;41.932;25.554;2022-12-10T01:15:20;99059.03;;;9.66;77.37
43488;BME280;29078;41.932;25.554;2022-12-10T01:17:45;99124.34;;;10.00;77.29
43488;BME280;29078;41.932;25.554;2022-12-10T01:20:11;99066.28;;;9.64;77.38
43488;BME280;29078;41.932;25.554;2022-12-10T01:22:37;99004.63;;;9.29;77.19
43488;BME280;29078;41.932;25.554;2022-12-10T01:25:03;98989.72;;;9.21;77.48
43488;BME280;29078;41.932;25.554;2022-12-10T01:27:29;99039.56;;;9.52;77.77
43488;BME280;29078;41.932;25.554;2022-12-10T01:29:54;98804.69;;;7.95;77.53
43488;BME280;29078;41.932;25.554;2022-12-10T01:32:20;99050.56;;;9.56;77.71
43488;BME280;29078;41.932;25.554;2022-12-10T01:34:45;99050.81;;;9.61;77.66
43488;BME280;29078;41.932;25.554;2022-12-10T01:37:11;98984.16;;;9.31;77.98
43488;BME280;29078;41.932;25.554;2022-12-10T01:39:36;99048.94;;;9.70;77.37
43488;BME280;29078;41.932;25.554;2022-12-10T01:42:02;99032.28;;;9.54;77.49
43488;BME280;29078;41.932;25.554;2022-12-10T01:46:56;99097.22;;;10.06;78.04
43488;BME280;29078;41.932;25.554;2022-12-10T01:49:26;99082.22;;;10.07;77.63
43488;BME280;29078;41.932;25.554;2022-12-10T01:51:55;99056.88;;;9.91;77.97
43488;BME280;29078;41.932;25.554;2022-12-10T01:54:43;99043.19;;;9.81;77.80
43488;BME280;29078;41.932;25.554;2022-12-10T01:57:17;98893.38;;;8.83;77.35
43488;BME280;29078;41.932;25.554;2022-12-10T02:02:28;99062.13;;;10.06;77.82
43488;BME280;29078;41.932;25.554;2022-12-10T02:15:23;99000.00;;;9.82;77.54
43488;BME280;29078;41.932;25.554;2022-12-10T02:17:56;98963.66;;;9.63;77.05
43488;BME280;29078;41.932;25.554;2022-12-10T02:20:33;99001.50;;;9.91;77.86
43488;BME280;29078;41.932;25.554;2022-12-10T02:23:08;99030.72;;;10.11;78.01
43488;BME280;29078;41.932;25.554;2022-12-10T02:25:59;99028.09;;;10.11;77.95
43488;BME280;29078;41.932;25.554;2022-12-10T02:30:58;98991.78;;;9.92;77.95
43488;BME280;29078;41.932;25.554;2022-12-10T02:33:25;98969.38;;;9.81;77.56
43488;BME280;29078;41.932;25.554;2022-12-10T02:35:53;99037.16;;;10.23;77.87
43488;BME280;29078;41.932;25.554;2022-12-10T02:38:29;98979.22;;;9.94;77.68
43488;BME280;29078;41.932;25.554;2022-12-10T02:41:04;98830.28;;;9.04;77.93
43488;BME280;29078;41.932;25.554;2022-12-10T02:43:30;98983.44;;;9.88;77.68
43488;BME280;29078;41.932;25.554;2022-12-10T02:45:58;98922.13;;;9.65;77.19
43488;BME280;29078;41.932;25.554;2022-12-10T02:48:25;99021.41;;;10.30;77.76
43488;BME280;29078;41.932;25.554;2022-12-10T02:50:51;98916.34;;;9.54;77.98
43488;BME280;29078;41.932;25.554;2022-12-10T02:53:16;98874.13;;;9.12;77.24
43488;BME280;29078;41.932;25.554;2022-12-10T02:56:02;99000.00;;;10.03;77.50
43488;BME280;29078;41.932;25.554;2022-12-10T03:03:57;99024.88;;;10.15;77.44
43488;BME280;29078;41.932;25.554;2022-12-10T03:08:59;98992.34;;;9.87;77.67
43488;BME280;29078;41.932;25.554;2022-12-10T03:11:25;99037.56;;;10.05;78.20
43488;BME280;29078;41.932;25.554;2022-12-10T03:14:17;99034.19;;;10.11;77.66
43488;BME280;29078;41.932;25.554;2022-12-10T03:16:49;99035.56;;;10.07;78.05
43488;BME280;29078;41.932;25.554;2022-12-10T03:19:18;98978.94;;;9.67;78.44
43488;BME280;29078;41.932;25.554;2022-12-10T03:21:47;98994.47;;;9.77;78.01
43488;BME280;29078;41.932;25.554;2022-12-10T03:24:13;99001.38;;;9.78;78.07
43488;BME280;29078;41.932;25.554;2022-12-10T03:26:41;98957.44;;;9.49;78.09
43488;BME280;29078;41.932;25.554;2022-12-10T03:29:10;98949.66;;;9.62;78.36
43488;BME280;29078;41.932;25.554;2022-12-10T03:31:39;98927.56;;;9.42;78.09
43488;BME280;29078;41.932;25.554;2022-12-10T03:34:07;99044.28;;;10.08;77.79
43488;BME280;29078;41.932;25.554;2022-12-10T03:36:34;98956.22;;;9.66;78.18
43488;BME280;29078;41.932;25.554;2022-12-10T03:39:01;98915.31;;;9.34;77.85
43488;BME280;29078;41.932;25.554;2022-12-10T03:41:27;98918.06;;;9.26;77.81
43488;BME280;29078;41.932;25.554;2022-12-10T03:43:57;99029.22;;;10.02;78.23
43488;BME280;29078;41.932;25.554;2022-12-10T03:46:25;99032.66;;;10.02;78.36
43488;BME280;29078;41.932;25.554;2022-12-10T03:48:52;99032.28;;;10.05;78.43
43488;BME280;29078;41.932;25.554;2022-12-10T03:51:18;99010.81;;;10.08;78.23
43488;BME280;29078;41.932;25.554;2022-12-10T03:53:43;99005.72;;;10.07;78.04
43488;BME280;29078;41.932;25.554;2022-12-10T03:56:09;99001.31;;;9.93;78.28
43488;BME280;29078;41.932;25.554;2022-12-10T03:58:34;99032.75;;;10.09;77.96
43488;BME280;29078;41.932;25.554;2022-12-10T04:01:01;99027.66;;;10.07;77.89
43488;BME280;29078;41.932;25.554;2022-12-10T04:03:26;98996.25;;;9.91;77.90
43488;BME280;29078;41.932;25.554;2022-12-10T04:05:52;98958.94;;;9.58;77.62
43488;BME280;29078;41.932;25.554;2022-12-10T04:08:17;98901.97;;;9.21;77.70
43488;BME280;29078;41.932;25.554;2022-12-10T04:10:43;98954.94;;;9.62;77.81
43488;BME280;29078;41.932;25.554;2022-12-10T04:13:08;98944.59;;;9.61;77.54
43488;BME280;29078;41.932;25.554;2022-12-10T04:15:52;99002.47;;;10.05;77.86
43488;BME280;29078;41.932;25.554;2022-12-10T04:18:36;98965.84;;;9.74;77.71
43488;BME280;29078;41.932;25.554;2022-12-10T04:21:01;98936.94;;;9.66;77.61
43488;BME280;29078;41.932;25.554;2022-12-10T04:23:45;98950.59;;;9.69;77.72
43488;BME280;29078;41.932;25.554;2022-12-10T04:26:29;98948.47;;;9.65;77.39
43488;BME280;29078;41.932;25.554;2022-12-10T04:29:13;98989.84;;;10.00;77.81
43488;BME280;29078;41.932;25.554;2022-12-10T04:31:38;98914.72;;;9.53;77.76
43488;BME280;29078;41.932;25.554;2022-12-10T04:34:03;99004.72;;;10.08;77.59
43488;BME280;29078;41.932;25.554;2022-12-10T04:36:29;98951.84;;;9.73;77.42
43488;BME280;29078;41.932;25.554;2022-12-10T04:38:54;99008.00;;;10.10;77.64
43488;BME280;29078;41.932;25.554;2022-12-10T04:41:20;98917.47;;;9.45;77.21
43488;BME280;29078;41.932;25.554;2022-12-10T04:43:45;99008.38;;;10.07;77.32
43488;BME280;29078;41.932;25.554;2022-12-10T04:46:11;98799.19;;;8.78;76.78
43488;BME280;29078;41.932;25.554;2022-12-10T04:48:36;98874.00;;;9.20;77.17
43488;BME280;29078;41.932;25.554;2022-12-10T04:51:02;98954.66;;;9.72;77.29
43488;BME280;29078;41.932;25.554;2022-12-10T04:53:27;98931.72;;;9.51;77.44
43488;BME280;29078;41.932;25.554;2022-12-10T04:55:53;98898.25;;;9.30;76.87
43488;BME280;29078;41.932;25.554;2022-12-10T04:58:18;98894.78;;;9.30;77.69
43488;BME280;29078;41.932;25.554;2022-12-10T05:00:44;98903.50;;;9.30;77.32
43488;BME280;29078;41.932;25.554;2022-12-10T05:03:09;98980.94;;;9.65;77.33
43488;BME280;29078;41.932;25.554;2022-12-10T05:05:35;99033.22;;;9.98;77.18
43488;BME280;29078;41.932;25.554;2022-12-10T05:08:00;98980.66;;;9.75;77.19
43488;BME280;29078;41.932;25.554;2022-12-10T05:10:26;99021.88;;;9.97;77.47
43488;BME280;29078;41.932;25.554;2022-12-10T05:12:51;98970.75;;;9.62;77.72
43488;BME280;29078;41.932;25.554;2022-12-10T05:15:17;98965.66;;;9.61;77.36
43488;BME280;29078;41.932;25.554;2022-12-10T05:17:42;99003.44;;;9.82;77.83
43488;BME280;29078;41.932;25.554;2022-12-10T05:20:08;98967.31;;;9.62;77.50
43488;BME280;29078;41.932;25.554;2022-12-10T05:22:34;98974.56;;;9.74;77.38
43488;BME280;29078;41.932;25.554;2022-12-10T05:25:18;98985.00;;;9.82;77.13
43488;BME280;29078;41.932;25.554;2022-12-10T05:27:43;98911.22;;;9.32;77.01
43488;BME280;29078;41.932;25.554;2022-12-10T05:30:09;98993.16;;;9.87;77.28
43488;BME280;29078;41.932;25.554;2022-12-10T05:32:35;99019.28;;;10.04;77.29
43488;BME280;29078;41.932;25.554;2022-12-10T05:35:00;98954.84;;;9.70;77.57
43488;BME280;29078;41.932;25.554;2022-12-10T05:37:27;99019.09;;;10.05;77.32
43488;BME280;29078;41.932;25.554;2022-12-10T05:39:54;99011.38;;;10.04;77.27
43488;BME280;29078;41.932;25.554;2022-12-10T05:42:19;98908.91;;;9.43;77.00
43488;BME280;29078;41.932;25.554;2022-12-10T05:44:45;98991.84;;;9.98;77.07
43488;BME280;29078;41.932;25.554;2022-12-10T05:47:11;98962.00;;;9.76;77.02
43488;BME280;29078;41.932;25.554;2022-12-10T05:49:36;98905.22;;;9.38;76.94
43488;BME280;29078;41.932;25.554;2022-12-10T05:52:02;99003.22;;;9.99;77.41
43488;BME280;29078;41.932;25.554;2022-12-10T05:54:27;98914.75;;;9.39;76.93
43488;BME280;29078;41.932;25.554;2022-12-10T05:56:52;98811.72;;;8.76;77.26
43488;BME280;29078;41.932;25.554;2022-12-10T05:59:19;98914.19;;;9.43;77.15
43488;BME280;29078;41.932;25.554;2022-12-10T06:01:44;98949.34;;;9.50;76.89
43488;BME280;29078;41.932;25.554;2022-12-10T06:04:10;98995.56;;;10.04;77.37
43488;BME280;29078;41.932;25.554;2022-12-10T06:06:37;98947.56;;;9.72;77.02
43488;BME280;29078;41.932;25.554;2022-12-10T06:09:04;99004.09;;;10.06;77.41
43488;BME280;29078;41.932;25.554;2022-12-10T06:11:30;98909.22;;;9.34;76.57
43488;BME280;29078;41.932;25.554;2022-12-10T06:13:56;99023.75;;;10.03;76.94
43488;BME280;29078;41.932;25.554;2022-12-10T06:16:23;98986.13;;;9.73;76.76
43488;BME280;29078;41.932;25.554;2022-12-10T06:18:49;98892.38;;;9.13;77.02
43488;BME280;29078;41.932;25.554;2022-12-10T06:21:16;98999.00;;;9.83;77.01
43488;BME280;29078;41.932;25.554;2022-12-10T06:23:42;98884.72;;;9.18;76.80
43488;BME280;29078;41.932;25.554;2022-12-10T06:26:10;99002.03;;;10.01;77.42
43488;BME280;29078;41.932;25.554;2022-12-10T06:28:36;98992.09;;;10.03;77.20
43488;BME280;29078;41.932;25.554;2022-12-10T06:31:02;98954.75;;;9.78;76.81
43488;BME280;29078;41.932;25.554;2022-12-10T06:33:28;98923.88;;;9.57;76.95
43488;BME280;29078;41.932;25.554;2022-12-10T06:35:53;98993.78;;;9.90;77.10
43488;BME280;29078;41.932;25.554;2022-12-10T06:38:18;99001.97;;;10.16;76.46
43488;BME280;29078;41.932;25.554;2022-12-10T06:40:44;98874.78;;;9.35;76.42
43488;BME280;29078;41.932;25.554;2022-12-10T06:43:09;98939.75;;;9.79;76.88
43488;BME280;29078;41.932;25.554;2022-12-10T06:45:38;98885.03;;;9.45;76.69
43488;BME280;29078;41.932;25.554;2022-12-10T06:48:04;98953.28;;;9.76;76.87
43488;BME280;29078;41.932;25.554;2022-12-10T06:50:30;98934.03;;;9.75;76.93
43488;BME280;29078;41.932;25.554;2022-12-10T06:52:55;98912.78;;;9.62;76.35
43488;BME280;29078;41.932;25.554;2022-12-10T06:55:21;98960.34;;;9.90;76.76
43488;BME280;29078;41.932;25.554;2022-12-10T06:57:46;98913.16;;;9.59;76.60
43488;BME280;29078;41.932;25.554;2022-12-10T07:00:12;98790.34;;;8.86;76.57
43488;BME280;29078;41.932;25.554;2022-12-10T07:02:38;98940.56;;;9.79;76.60
43488;BME280;29078;41.932;25.554;2022-12-10T07:05:03;98982.81;;;10.07;76.94
43488;BME280;29078;41.932;25.554;2022-12-10T07:07:29;99018.41;;;10.18;77.36
43488;BME280;29078;41.932;25.554;2022-12-10T07:09:54;98922.94;;;9.65;77.12
43488;BME280;29078;41.932;25.554;2022-12-10T07:12:20;98971.63;;;10.05;77.02
43488;BME280;29078;41.932;25.554;2022-12-10T07:14:45;98893.69;;;9.60;76.55
43488;BME280;29078;41.932;25.554;2022-12-10T07:17:10;98981.31;;;10.19;76.57
43488;BME280;29078;41.932;25.554;2022-12-10T07:19:36;98942.94;;;9.96;76.98
43488;BME280;29078;41.932;25.554;2022-12-10T07:22:01;98997.28;;;10.33;76.40
43488;BME280;29078;41.932;25.554;2022-12-10T07:24:27;98935.59;;;9.91;76.32
43488;BME280;29078;41.932;25.554;2022-12-10T07:26:52;98945.81;;;10.01;76.48
43488;BME280;29078;41.932;25.554;2022-12-10T07:29:20;98898.75;;;9.76;76.48
43488;BME280;29078;41.932;25.554;2022-12-10T07:31:46;98971.22;;;10.23;76.36
43488;BME280;29078;41.932;25.554;2022-12-10T07:34:13;98985.41;;;10.43;76.73
43488;BME280;29078;41.932;25.554;2022-12-10T07:36:38;98977.75;;;10.48;76.06
43488;BME280;29078;41.932;25.554;2022-12-10T07:39:06;98897.34;;;10.02;76.64
43488;BME280;29078;41.932;25.554;2022-12-10T07:41:31;98918.38;;;10.16;76.39
43488;BME280;29078;41.932;25.554;2022-12-10T07:43:57;98914.81;;;10.24;76.46
43488;BME280;29078;41.932;25.554;2022-12-10T07:46:27;98813.72;;;9.68;76.37
43488;BME280;29078;41.932;25.554;2022-12-10T07:48:53;98946.78;;;10.64;76.27
43488;BME280;29078;41.932;25.554;2022-12-10T07:51:20;98901.44;;;10.26;76.37
43488;BME280;29078;41.932;25.554;2022-12-10T07:53:46;98920.19;;;10.37;76.18
43488;BME280;29078;41.932;25.554;2022-12-10T07:56:12;98814.09;;;9.93;76.25
43488;BME280;29078;41.932;25.554;2022-12-10T07:58:41;98969.09;;;10.89;76.01
43488;BME280;29078;41.932;25.554;2022-12-10T08:01:09;98949.63;;;10.97;76.46
43488;BME280;29078;41.932;25.554;2022-12-10T08:03:35;98949.00;;;10.95;76.00
43488;BME280;29078;41.932;25.554;2022-12-10T08:06:02;98958.84;;;11.07;75.54
43488;BME280;29078;41.932;25.554;2022-12-10T08:08:28;98921.78;;;10.94;75.32
43488;BME280;29078;41.932;25.554;2022-12-10T08:10:53;98936.56;;;11.17;75.00
43488;BME280;29078;41.932;25.554;2022-12-10T08:13:19;98938.53;;;11.14;75.62
43488;BME280;29078;41.932;25.554;2022-12-10T08:15:44;98919.28;;;11.21;75.15
43488;BME280;29078;41.932;25.554;2022-12-10T08:18:10;98805.22;;;10.56;75.55
43488;BME280;29078;41.932;25.554;2022-12-10T08:20:35;98918.91;;;11.30;75.30
43488;BME280;29078;41.932;25.554;2022-12-10T08:23:01;98885.13;;;11.19;75.11
43488;BME280;29078;41.932;25.554;2022-12-10T08:25:26;98943.19;;;11.54;75.00
43488;BME280;29078;41.932;25.554;2022-12-10T08:27:52;98885.13;;;11.19;74.85
43488;BME280;29078;41.932;25.554;2022-12-10T08:30:17;98911.81;;;11.31;74.91
43488;BME280;29078;41.932;25.554;2022-12-10T08:32:42;98853.94;;;10.95;75.40
43488;BME280;29078;41.932;25.554;2022-12-10T08:35:08;98895.13;;;11.24;75.19
43488;BME280;29078;41.932;25.554;2022-12-10T08:37:33;98828.88;;;10.77;75.76
43488;BME280;29078;41.932;25.554;2022-12-10T08:39:59;98916.69;;;11.27;75.92
43488;BME280;29078;41.932;25.554;2022-12-10T08:42:24;98919.28;;;11.21;75.92
43488;BME280;29078;41.932;25.554;2022-12-10T08:44:49;98894.78;;;10.99;75.93
43488;BME280;29078;41.932;25.554;2022-12-10T08:47:15;98836.50;;;10.59;76.34
43488;BME280;29078;41.932;25.554;2022-12-10T08:49:41;98903.53;;;10.99;76.07
43488;BME280;29078;41.932;25.554;2022-12-10T08:52:06;98732.56;;;9.91;76.18
43488;BME280;29078;41.932;25.554;2022-12-10T08:54:32;98947.59;;;11.33;76.10
43488;BME280;29078;41.932;25.554;2022-12-10T08:56:57;98865.69;;;10.92;75.77
43488;BME280;29078;41.932;25.554;2022-12-10T08:59:23;98872.75;;;10.78;76.09
43488;BME280;29078;41.932;25.554;2022-12-10T09:01:51;98943.19;;;11.47;75.82
43488;BME280;29078;41.932;25.554;2022-12-10T09:04:17;98917.91;;;11.31;75.83
43488;BME280;29078;41.932;25.554;2022-12-10T09:06:42;98899.56;;;11.17;76.10
43488;BME280;29078;41.932;25.554;2022-12-10T09:09:07;98891.25;;;11.26;75.81
43488;BME280;29078;41.932;25.554;2022-12-10T09:11:34;98925.91;;;11.58;75.67
43488;BME280;29078;41.932;25.554;2022-12-10T09:14:00;98822.03;;;10.96;75.63
43488;BME280;29078;41.932;25.554;2022-12-10T09:16:35;98913.50;;;11.58;75.91
43488;BME280;29078;41.932;25.554;2022-12-10T09:19:01;98798.25;;;10.90;75.37
43488;BME280;29078;41.932;25.554;2022-12-10T09:21:28;98907.63;;;11.63;75.50
43488;BME280;29078;41.932;25.554;2022-12-10T09:23:54;98815.22;;;11.22;74.71
43488;BME280;29078;41.932;25.554;2022-12-10T09:26:20;98853.09;;;11.42;75.21
43488;BME280;29078;41.932;25.554;2022-12-10T09:28:47;98899.97;;;11.81;74.63
43488;BME280;29078;41.932;25.554;2022-12-10T09:31:13;98897.28;;;11.74;75.09
43488;BME280;29078;41.932;25.554;2022-12-10T09:33:39;98867.56;;;11.72;74.80
43488;BME280;29078;41.932;25.554;2022-12-10T09:36:06;98883.53;;;11.92;74.41
43488;BME280;29078;41.932;25.554;2022-12-10T09:38:37;98820.16;;;11.64;74.20
43488;BME280;29078;41.932;25.554;2022-12-10T09:51:24;98849.13;;;12.05;73.70
43488;BME280;29078;41.932;25.554;2022-12-10T09:53:53;98777.66;;;11.66;74.49
43488;BME280;29078;41.932;25.554;2022-12-10T09:56:27;98789.88;;;11.80;74.23
43488;BME280;29078;41.932;25.554;2022-12-10T09:58:54;98825.94;;;12.01;74.75
43488;BME280;29078;41.932;25.554;2022-12-10T10:01:23;98790.69;;;11.87;74.65
43488;BME280;29078;41.932;25.554;2022-12-10T10:03:50;98640.81;;;10.95;74.06
43488;BME280;29078;41.932;25.554;2022-12-10T10:06:15;98811.69;;;12.02;74.67
43488;BME280;29078;41.932;25.554;2022-12-10T10:08:44;98705.47;;;11.19;74.63
43488;BME280;29078;41.932;25.554;2022-12-10T10:11:31;98807.59;;;12.06;74.27
43488;BME280;29078;41.932;25.554;2022-12-10T10:14:00;98807.00;;;12.11;74.46
43488;BME280;29078;41.932;25.554;2022-12-10T10:16:39;98751.66;;;11.83;74.20
43488;BME280;29078;41.932;25.554;2022-12-10T10:19:15;98805.97;;;12.12;74.61
43488;BME280;29078;41.932;25.554;2022-12-10T10:21:43;98798.22;;;12.10;74.64
43488;BME280;29078;41.932;25.554;2022-12-10T10:24:16;98784.41;;;12.08;74.56
43488;BME280;29078;41.932;25.554;2022-12-10T10:26:42;98735.75;;;11.76;74.84
43488;BME280;29078;41.932;25.554;2022-12-10T10:29:10;98633.31;;;11.25;74.44
43488;BME280;29078;41.932;25.554;2022-12-10T10:31:40;98605.88;;;11.06;74.85
43488;BME280;29078;41.932;25.554;2022-12-10T10:34:18;98741.06;;;11.96;74.17
43488;BME280;29078;41.932;25.554;2022-12-10T10:36:45;98764.22;;;12.20;74.73
43488;BME280;29078;41.932;25.554;2022-12-10T10:41:42;98715.84;;;11.93;74.68
43488;BME280;29078;41.932;25.554;2022-12-10T10:44:16;98715.22;;;12.04;75.03
43488;BME280;29078;41.932;25.554;2022-12-10T10:46:42;98667.19;;;11.74;74.80
43488;BME280;29078;41.932;25.554;2022-12-10T10:49:32;98653.59;;;11.77;75.00
43488;BME280;29078;41.932;25.554;2022-12-10T10:52:05;98718.84;;;12.17;74.82
43488;BME280;29078;41.932;25.554;2022-12-10T10:54:33;98682.25;;;12.00;74.72
43488;BME280;29078;41.932;25.554;2022-12-10T10:57:32;98744.44;;;12.36;75.01
43488;BME280;29078;41.932;25.554;2022-12-10T11:00:22;98742.81;;;12.35;74.84
43488;BME280;29078;41.932;25.554;2022-12-10T11:02:48;98705.00;;;12.15;74.80
43488;BME280;29078;41.932;25.554;2022-12-10T11:05:29;98745.03;;;12.38;74.68
43488;BME280;29078;41.932;25.554;2022-12-10T11:08:04;98589.97;;;11.46;74.80
43488;BME280;29078;41.932;25.554;2022-12-10T11:10:30;98659.69;;;11.91;74.78
43488;BME280;29078;41.932;25.554;2022-12-10T11:13:06;98743.38;;;12.44;74.48
43488;BME280;29078;41.932;25.554;2022-12-10T11:17:58;98731.34;;;12.48;74.47
43488;BME280;29078;41.932;25.554;2022-12-10T11:20:26;98650.31;;;11.95;74.15
43488;BME280;29078;41.932;25.554;2022-12-10T11:22:58;98720.53;;;12.49;74.21
43488;BME280;29078;41.932;25.554;2022-12-10T11:34:34;98705.63;;;12.61;74.38
43488;BME280;29078;41.932;25.554;2022-12-10T11:37:08;98694.22;;;12.61;74.34
43488;BME280;29078;41.932;25.554;2022-12-10T11:39:45;98688.53;;;12.64;74.53
43488;BME280;29078;41.932;25.554;2022-12-10T11:42:23;98656.97;;;12.56;74.15
43488;BME280;29078;41.932;25.554;2022-12-10T11:50:27;98664.00;;;12.75;74.17
43488;BME280;29078;41.932;25.554;2022-12-10T11:53:01;98655.84;;;12.77;74.20
43488;BME280;29078;41.932;25.554;2022-12-10T12:01:14;98638.63;;;12.92;74.04
43488;BME280;29078;41.932;25.554;2022-12-10T12:07:11;98628.72;;;13.06;74.08
43488;BME280;29078;41.932;25.554;2022-12-10T12:17:41;98559.91;;;12.75;73.95
43488;BME280;29078;41.932;25.554;2022-12-10T12:20:25;98611.97;;;13.12;74.05
43488;BME280;29078;41.932;25.554;2022-12-10T12:23:02;98554.06;;;12.91;73.70
43488;BME280;29078;41.932;25.554;2022-12-10T12:25:34;98547.34;;;12.88;73.94
43488;BME280;29078;41.932;25.554;2022-12-10T12:28:07;98550.16;;;12.93;73.48
43488;BME280;29078;41.932;25.554;2022-12-10T12:30:37;98633.31;;;13.49;73.46
43488;BME280;29078;41.932;25.554;2022-12-10T12:35:55;98618.88;;;13.63;73.29
43488;BME280;29078;41.932;25.554;2022-12-10T12:41:15;98618.59;;;13.71;73.16
43488;BME280;29078;41.932;25.554;2022-12-10T12:43:55;98526.09;;;13.20;73.01
43488;BME280;29078;41.932;25.554;2022-12-10T12:46:32;98634.59;;;13.83;73.22
43488;BME280;29078;41.932;25.554;2022-12-10T12:49:03;98616.97;;;13.88;72.97
43488;BME280;29078;41.932;25.554;2022-12-10T12:51:43;98541.09;;;13.51;72.93
43488;BME280;29078;41.932;25.554;2022-12-10T12:54:11;98575.56;;;13.87;73.22
43488;BME280;29078;41.932;25.554;2022-12-10T12:57:16;98604.34;;;14.20;73.32
43488;BME280;29078;41.932;25.554;2022-12-10T13:05:04;98554.25;;;14.42;72.18
43488;BME280;29078;41.932;25.554;2022-12-10T13:07:32;98526.66;;;14.43;71.57
43488;BME280;29078;41.932;25.554;2022-12-10T13:10:17;98584.97;;;14.91;71.05
43488;BME280;29078;41.932;25.554;2022-12-10T13:12:51;98533.28;;;14.76;70.61
43488;BME280;29078;41.932;25.554;2022-12-10T13:15:20;98611.59;;;15.26;70.45
43488;BME280;29078;41.932;25.554;2022-12-10T13:20:39;98538.31;;;14.96;69.72
43488;BME280;29078;41.932;25.554;2022-12-10T13:36:26;98612.28;;;15.45;69.35
43488;BME280;29078;41.932;25.554;2022-12-10T13:41:29;98554.03;;;15.09;68.95
43488;BME280;29078;41.932;25.554;2022-12-10T13:44:45;98609.41;;;15.47;68.43
43488;BME280;29078;41.932;25.554;2022-12-10T13:49:53;98601.53;;;15.52;68.20
43488;BME280;29078;41.932;25.554;2022-12-10T13:52:25;98535.41;;;15.09;67.94
43488;BME280;29078;41.932;25.554;2022-12-10T14:00:31;98565.81;;;15.36;67.93
43488;BME280;29078;41.932;25.554;2022-12-10T14:05:50;98580.34;;;15.57;67.46
43488;BME280;29078;41.932;25.554;2022-12-10T14:08:26;98528.25;;;15.21;67.46
43488;BME280;29078;41.932;25.554;2022-12-10T14:10:53;98589.84;;;15.53;67.64
43488;BME280;29078;41.932;25.554;2022-12-10T14:13:30;98497.16;;;14.98;67.75
43488;BME280;29078;41.932;25.554;2022-12-10T14:15:58;98454.03;;;14.73;68.13
43488;BME280;29078;41.932;25.554;2022-12-10T14:18:27;98492.53;;;14.93;68.08
43488;BME280;29078;41.932;25.554;2022-12-10T14:20:55;98482.84;;;14.87;68.20
43488;BME280;29078;41.932;25.554;2022-12-10T14:23:26;98581.53;;;15.49;67.90
43488;BME280;29078;41.932;25.554;2022-12-10T14:25:58;98465.69;;;14.83;68.50
43488;BME280;29078;41.932;25.554;2022-12-10T14:28:29;98561.50;;;15.47;68.29
43488;BME280;29078;41.932;25.554;2022-12-10T14:30:55;98560.47;;;15.36;68.43
43488;BME280;29078;41.932;25.554;2022-12-10T14:33:23;98576.66;;;15.46;68.59
43488;BME280;29078;41.932;25.554;2022-12-10T14:35:50;98547.53;;;15.28;68.85
43488;BME280;29078;41.932;25.554;2022-12-10T14:38:33;98535.84;;;15.29;68.79
43488;BME280;29078;41.932;25.554;2022-12-10T14:41:00;98507.69;;;15.05;68.89
43488;BME280;29078;41.932;25.554;2022-12-10T14:43:36;98578.41;;;15.41;68.70
43488;BME280;29078;41.932;25.554;2022-12-10T14:46:04;98480.16;;;14.76;68.81
43488;BME280;29078;41.932;25.554;2022-12-10T14:48:30;98464.19;;;14.76;68.93
43488;BME280;29078;41.932;25.554;2022-12-10T14:51:03;98425.28;;;14.58;69.00
43488;BME280;29078;41.932;25.554;2022-12-10T14:53:29;98538.28;;;15.31;69.23
43488;BME280;29078;41.932;25.554;2022-12-10T14:56:01;98480.16;;;14.99;69.14
43488;BME280;29078;41.932;25.554;2022-12-10T14:58:38;98432.22;;;14.59;69.29